Time;durP1;ratioP1;P1;durP2;ratioP2;P2;SDS_P1;SDS_P2;PMS_P1;PMS_P2;Temp;Humidity;BMP_temperature;BMP_pressure;BME280_temperature;BME280_humidity;BME280_pressure;Samples;Min_cycle;Max_cycle;Signal;HPM_P1;HPM_P2
2021/12/11 00:00:41;;;;;;;63.00;29.90;;;;;;;-145.18;100.00;47580.53;5069725;28;20265;-69
2021/12/11 00:03:18;;;;;;;56.37;28.20;;;;;;;-145.18;100.00;47605.94;5069864;28;20797;-69
2021/12/11 00:05:48;;;;;;;56.73;27.67;;;;;;;-145.18;100.00;47600.06;5069572;28;20280;-69
2021/12/11 00:08:19;;;;;;;61.30;31.07;;;;;;;-145.18;100.00;47613.75;5069580;28;20280;-68
2021/12/11 00:10:49;;;;;;;58.63;28.90;;;;;;;-145.18;100.00;47603.97;5069871;28;20496;-69
2021/12/11 00:13:20;;;;;;;57.97;27.77;;;;;;;-145.18;100.00;47607.88;5069884;28;20351;-69
2021/12/11 00:15:47;;;;;;;51.27;25.47;;;;;;;-145.18;100.00;47609.84;5069357;28;20278;-69
2021/12/11 00:18:20;;;;;;;53.07;25.27;;;;;;;-145.18;100.00;47588.34;5069637;28;20261;-69
2021/12/11 00:21:14;;;;;;;50.03;25.40;;;;;;;-145.18;100.00;47623.50;5069492;28;20269;-69
2021/12/11 00:24:11;;;;;;;50.50;24.40;;;;;;;-145.18;100.00;47588.34;5069648;28;20382;-69
2021/12/11 00:26:41;;;;;;;45.73;22.63;;;;;;;-145.18;100.00;47596.16;5067389;28;20269;-69
2021/12/11 00:29:09;;;;;;;57.23;26.60;;;;;;;-145.18;100.00;47621.56;5069841;28;20277;-68
2021/12/11 00:31:36;;;;;;;47.70;23.17;;;;;;;-145.18;100.00;47621.56;5069196;28;20269;-68
2021/12/11 00:34:03;;;;;;;46.40;23.03;;;;;;;-145.18;100.00;47590.28;5069568;28;20304;-69
2021/12/11 00:36:32;;;;;;;47.37;21.43;;;;;;;-145.18;100.00;47609.84;5069145;28;20877;-68
2021/12/11 00:39:18;;;;;;;42.23;20.60;;;;;;;-145.18;100.00;47619.59;5069437;28;20657;-68
2021/12/11 00:41:49;;;;;;;44.75;21.02;;;;;;;-145.18;100.00;47600.06;5068780;28;20265;-68
2021/12/11 00:44:15;;;;;;;45.20;20.77;;;;;;;-145.18;100.00;47602.00;5069604;28;20040;-69
2021/12/11 00:46:40;;;;;;;46.53;21.37;;;;;;;-145.18;100.00;47600.06;5068645;28;20276;-68
2021/12/11 00:49:28;;;;;;;44.33;22.00;;;;;;;-145.18;100.00;47623.50;5069375;28;20037;-69
2021/12/11 00:51:54;;;;;;;43.47;21.47;;;;;;;-145.18;100.00;47629.38;5068771;28;20049;-69
2021/12/11 00:54:22;;;;;;;41.60;22.07;;;;;;;-145.18;100.00;47607.88;5069344;28;20277;-69
2021/12/11 00:56:48;;;;;;;45.00;21.57;;;;;;;-145.18;100.00;47568.81;5068527;28;20266;-69
2021/12/11 00:59:18;;;;;;;59.90;23.03;;;;;;;-145.18;100.00;47600.06;5068082;28;20346;-69
2021/12/11 01:01:50;;;;;;;46.13;21.43;;;;;;;-145.18;100.00;47582.47;5067804;28;20527;-68
2021/12/11 01:04:24;;;;;;;50.73;20.60;;;;;;;-145.18;100.00;47594.19;5069076;28;20391;-69
2021/12/11 01:06:55;;;;;;;49.63;21.47;;;;;;;-145.18;100.00;47613.75;5068509;28;20282;-69
2021/12/11 01:09:25;;;;;;;42.03;20.87;;;;;;;-145.18;100.00;47596.16;5068754;28;20308;-68
2021/12/11 01:11:58;;;;;;;50.03;22.63;;;;;;;-145.18;100.00;47588.34;5048903;28;20357;-69
2021/12/11 01:14:41;;;;;;;45.13;20.47;;;;;;;-145.18;100.00;47603.97;5048814;28;20408;-69
2021/12/11 01:17:18;;;;;;;40.43;20.10;;;;;;;-145.18;100.00;47600.06;5048541;28;20313;-69
2021/12/11 01:19:47;;;;;;;45.07;20.87;;;;;;;-145.18;100.00;47598.09;5048457;28;20262;-68
2021/12/11 01:22:32;;;;;;;43.97;20.87;;;;;;;-145.18;100.00;47586.38;5047895;28;20285;-69
2021/12/11 01:25:00;;;;;;;40.10;20.50;;;;;;;-145.18;100.00;47578.56;5048386;28;20792;-69
2021/12/11 01:27:26;;;;;;;45.00;20.27;;;;;;;-145.18;100.00;47578.56;5048614;28;20783;-69
2021/12/11 01:29:57;;;;;;;51.47;22.93;;;;;;;-145.18;100.00;47602.00;5047937;28;20317;-69
2021/12/11 01:32:25;;;;;;;46.60;20.97;;;;;;;-145.18;100.00;47594.19;5048276;28;20357;-69
2021/12/11 01:34:51;;;;;;;48.03;21.33;;;;;;;-145.18;100.00;47613.75;5047658;28;20655;-69
2021/12/11 01:37:18;;;;;;;47.13;20.60;;;;;;;-145.18;100.00;47596.16;5048175;28;20315;-68
2021/12/11 01:39:44;;;;;;;47.50;21.17;;;;;;;-145.18;100.00;47580.53;5048083;28;20302;-69
2021/12/11 01:42:23;;;;;;;46.23;19.63;;;;;;;-145.18;100.00;47609.84;5047854;28;20638;-69
2021/12/11 01:44:51;;;;;;;43.77;20.57;;;;;;;-145.18;100.00;47596.16;5047724;28;20045;-69
2021/12/11 01:47:20;;;;;;;42.63;21.63;;;;;;;-145.18;100.00;47607.88;5047767;28;20312;-69
2021/12/11 01:49:51;;;;;;;49.63;21.73;;;;;;;-145.18;100.00;47590.28;5047659;28;20297;-69
2021/12/11 01:52:39;;;;;;;46.23;20.93;;;;;;;-145.18;100.00;47588.34;5047591;28;20281;-69
2021/12/11 01:55:33;;;;;;;46.10;20.90;;;;;;;-145.18;100.00;47586.38;5047597;28;20259;-69
2021/12/11 01:58:00;;;;;;;46.57;21.03;;;;;;;-145.18;100.00;47594.19;5053703;28;20337;-69
2021/12/11 02:00:34;;;;;;;44.43;20.73;;;;;;;-145.18;100.00;47596.16;5047610;28;20365;-69
2021/12/11 02:03:04;;;;;;;48.03;20.67;;;;;;;-145.18;100.00;47592.25;5047851;28;20272;-69
2021/12/11 02:05:33;;;;;;;48.53;21.47;;;;;;;-145.18;100.00;47598.09;5047718;28;20805;-69
2021/12/11 02:08:04;;;;;;;40.03;20.33;;;;;;;-145.18;100.00;47586.38;5047612;28;20301;-69
2021/12/11 02:10:41;;;;;;;35.57;18.53;;;;;;;-145.18;100.00;47584.44;5047525;28;20293;-69
2021/12/11 02:13:10;;;;;;;44.03;20.23;;;;;;;-145.18;100.00;47623.50;5047646;28;20796;-68
2021/12/11 02:15:45;;;;;;;43.47;19.53;;;;;;;-145.18;100.00;47598.09;5047157;28;20274;-68
2021/12/11 02:18:18;;;;;;;43.03;19.52;;;;;;;-145.18;100.00;47582.47;5047377;28;20246;-69
2021/12/11 02:20:51;;;;;;;43.10;19.70;;;;;;;-145.18;100.00;47609.84;5047271;28;20040;-69
2021/12/11 02:23:17;;;;;;;39.83;18.17;;;;;;;-145.18;100.00;47615.69;5047130;28;20270;-69
2021/12/11 02:25:46;;;;;;;50.30;21.43;;;;;;;-145.18;100.00;47603.97;5046843;28;20258;-66
2021/12/11 02:28:27;;;;;;;43.63;20.33;;;;;;;-145.18;100.00;47607.88;5047003;28;20489;-67
2021/12/11 02:31:10;;;;;;;38.43;18.43;;;;;;;-145.18;100.00;47590.28;5047026;28;20261;-69
2021/12/11 02:33:39;;;;;;;41.67;20.77;;;;;;;-145.18;100.00;47605.94;5047088;28;20258;-69
2021/12/11 02:36:17;;;;;;;45.87;21.37;;;;;;;-145.18;100.00;47605.94;5047153;28;20294;-69
2021/12/11 02:39:21;;;;;;;43.40;20.57;;;;;;;-145.18;100.00;47594.19;5046997;28;20300;-69
2021/12/11 02:42:05;;;;;;;46.53;21.47;;;;;;;-145.18;100.00;47590.28;5034229;28;20669;-69
2021/12/11 02:44:37;;;;;;;43.47;20.80;;;;;;;-145.18;100.00;47598.09;5047233;28;20258;-69
2021/12/11 02:47:09;;;;;;;41.37;20.80;;;;;;;-145.18;100.00;47631.31;5047224;28;20258;-69
2021/12/11 02:50:06;;;;;;;46.43;21.13;;;;;;;-145.18;100.00;47602.00;5046807;28;20638;-69
2021/12/11 02:52:36;;;;;;;46.60;20.60;;;;;;;-145.18;100.00;47607.88;5042255;28;20396;-69
2021/12/11 02:55:07;;;;;;;42.20;20.70;;;;;;;-145.18;100.00;47609.84;5047154;28;20262;-69
2021/12/11 02:57:42;;;;;;;39.67;19.13;;;;;;;-145.18;100.00;47574.66;5046598;28;20377;-69
2021/12/11 03:00:16;;;;;;;45.47;21.08;;;;;;;-145.18;100.00;47590.28;5046957;28;20885;-69
2021/12/11 03:02:48;;;;;;;41.67;20.30;;;;;;;-145.18;100.00;47594.19;5046415;28;20029;-69
2021/12/11 03:05:18;;;;;;;45.83;21.17;;;;;;;-145.18;100.00;47609.84;5046860;28;20270;-69
2021/12/11 03:07:50;;;;;;;43.13;20.70;;;;;;;-145.18;100.00;47594.19;5046743;28;20700;-69
2021/12/11 03:10:18;;;;;;;42.97;20.37;;;;;;;-145.18;100.00;47592.25;5046532;28;20262;-69
2021/12/11 03:12:45;;;;;;;45.03;21.73;;;;;;;-145.18;100.00;47594.19;5046807;28;20350;-69
2021/12/11 03:15:12;;;;;;;46.60;21.23;;;;;;;-145.18;100.00;47603.97;5046801;28;20281;-69
2021/12/11 03:17:38;;;;;;;44.97;20.20;;;;;;;-145.18;100.00;47576.63;5046177;28;20258;-69
2021/12/11 03:20:07;;;;;;;43.00;20.57;;;;;;;-145.18;100.00;47590.28;5046786;28;20293;-69
2021/12/11 03:22:34;;;;;;;44.07;19.17;;;;;;;-145.18;100.00;47611.78;5047949;28;20540;-69
2021/12/11 03:25:03;;;;;;;44.77;20.27;;;;;;;-145.18;100.00;47572.72;5050622;28;20270;-69
2021/12/11 03:27:28;;;;;;;43.70;21.50;;;;;;;-145.18;100.00;47598.09;5050364;28;20282;-69
2021/12/11 03:29:54;;;;;;;45.13;21.27;;;;;;;-145.18;100.00;47578.56;5050808;28;21174;-69
2021/12/11 03:32:20;;;;;;;51.50;21.70;;;;;;;-145.18;100.00;47600.06;5050084;28;20025;-69
2021/12/11 03:34:50;;;;;;;44.73;21.27;;;;;;;-145.18;100.00;47578.56;5050395;28;20037;-69
2021/12/11 03:37:18;;;;;;;37.53;19.57;;;;;;;-145.18;100.00;47590.28;5049174;28;20266;-69
2021/12/11 03:39:49;;;;;;;41.43;20.57;;;;;;;-145.18;100.00;47598.09;5050252;28;20339;-69
2021/12/11 03:42:31;;;;;;;50.00;20.23;;;;;;;-145.18;100.00;47600.06;5049673;28;20270;-69
2021/12/11 03:44:59;;;;;;;45.43;21.77;;;;;;;-145.18;100.00;47594.19;5050418;28;20262;-69
2021/12/11 03:47:29;;;;;;;46.30;20.93;;;;;;;-145.18;100.00;47570.75;5050038;28;20261;-69
2021/12/11 03:49:55;;;;;;;40.97;20.63;;;;;;;-145.18;100.00;47578.56;5048630;28;20284;-69
2021/12/11 03:52:22;;;;;;;46.93;21.10;;;;;;;-145.18;100.00;47580.53;5049457;28;20900;-69
2021/12/11 03:54:50;;;;;;;40.07;20.43;;;;;;;-145.18;100.00;47598.09;5049946;28;20274;-69
2021/12/11 03:57:21;;;;;;;41.97;20.33;;;;;;;-145.18;100.00;47584.44;5050019;28;20308;-69
2021/12/11 03:59:48;;;;;;;46.53;21.53;;;;;;;-145.18;100.00;47574.66;5049819;28;20274;-69
2021/12/11 04:02:16;;;;;;;42.43;20.13;;;;;;;-145.18;100.00;47584.44;5049708;28;20270;-67
2021/12/11 04:04:47;;;;;;;44.37;19.87;;;;;;;-145.18;100.00;47578.56;5049334;28;20274;-67
2021/12/11 04:07:17;;;;;;;42.73;20.60;;;;;;;-145.18;100.00;47584.44;5049840;28;20282;-67
2021/12/11 04:09:44;;;;;;;42.77;20.87;;;;;;;-145.18;100.00;47605.94;5049362;28;20270;-67
2021/12/11 04:12:10;;;;;;;41.73;19.73;;;;;;;-145.18;100.00;47596.16;5049627;28;20277;-68
2021/12/11 04:14:39;;;;;;;39.63;20.47;;;;;;;-145.18;100.00;47572.72;5049900;28;20310;-67
2021/12/11 04:17:06;;;;;;;45.40;22.13;;;;;;;-145.18;100.00;47576.63;5049578;28;20320;-67
2021/12/11 04:19:32;;;;;;;44.83;21.33;;;;;;;-145.18;100.00;47600.06;5049335;28;20254;-67
2021/12/11 04:21:59;;;;;;;43.53;21.37;;;;;;;-145.18;100.00;47588.34;5049464;28;20343;-67
2021/12/11 04:24:28;;;;;;;41.37;20.37;;;;;;;-145.18;100.00;47580.53;5049297;28;20282;-67
2021/12/11 04:26:55;;;;;;;46.17;22.23;;;;;;;-145.18;100.00;47600.06;5048941;28;20267;-67
2021/12/11 04:29:22;;;;;;;41.87;20.77;;;;;;;-145.18;100.00;47570.75;5049166;28;20278;-67
2021/12/11 04:31:49;;;;;;;45.07;22.37;;;;;;;-145.18;100.00;47594.19;5049058;28;20376;-67
2021/12/11 04:34:17;;;;;;;46.00;22.87;;;;;;;-145.18;100.00;47586.38;5047770;28;20262;-67
2021/12/11 04:36:51;;;;;;;51.53;23.03;;;;;;;-145.18;100.00;47582.47;5049699;28;20262;-67
2021/12/11 04:39:20;;;;;;;52.83;23.13;;;;;;;-145.18;100.00;47582.47;5048841;28;20639;-67
2021/12/11 04:41:57;;;;;;;51.77;23.33;;;;;;;-145.18;100.00;47586.38;5048878;28;20301;-68
2021/12/11 04:44:35;;;;;;;48.07;24.30;;;;;;;-145.18;100.00;47598.09;5049178;28;20278;-69
2021/12/11 04:47:04;;;;;;;47.47;24.47;;;;;;;-145.18;100.00;47572.72;5049165;28;20619;-69
2021/12/11 04:49:40;;;;;;;52.90;23.57;;;;;;;-145.18;100.00;47600.06;5048577;28;20651;-69
2021/12/11 04:52:50;;;;;;;45.35;23.02;;;;;;;-145.18;100.00;47568.81;5049158;28;20262;-69
2021/12/11 04:55:49;;;;;;;49.03;23.27;;;;;;;-145.18;100.00;47603.97;5047907;28;20029;-69
2021/12/11 04:58:02;;;;;;;42.33;21.47;;;;;;;-145.18;100.00;47594.19;5047041;28;20366;-69
2021/12/11 05:00:56;;;;;;;40.83;20.97;;;;;;;-145.18;100.00;47607.88;5048909;28;20270;-69
2021/12/11 05:03:51;;;;;;;45.77;23.37;;;;;;;-145.18;100.00;47607.88;5048821;28;20285;-69
2021/12/11 05:12:13;;;;;;;43.23;22.00;;;;;;;-145.18;100.00;47605.94;5036009;28;20270;-69
2021/12/11 05:14:40;;;;;;;46.33;24.20;;;;;;;-145.18;100.00;47609.84;5048441;28;20296;-69
2021/12/11 05:17:06;;;;;;;49.53;24.87;;;;;;;-145.18;100.00;47594.19;5046999;28;20367;-69
2021/12/11 05:19:32;;;;;;;50.47;24.50;;;;;;;-145.18;100.00;47643.03;5048088;28;20282;-69
2021/12/11 05:21:58;;;;;;;48.50;24.13;;;;;;;-145.18;100.00;47600.06;5047006;28;20285;-69
2021/12/11 05:24:24;;;;;;;46.27;24.70;;;;;;;-145.18;100.00;47594.19;5048230;28;20124;-67
2021/12/11 05:26:49;;;;;;;46.23;24.33;;;;;;;-145.18;100.00;47603.97;5047623;28;20041;-68
2021/12/11 05:29:15;;;;;;;45.43;24.27;;;;;;;-145.18;100.00;47600.06;5048890;28;20048;-67
2021/12/11 05:31:40;;;;;;;47.67;25.07;;;;;;;-145.18;100.00;47594.19;5048014;28;20140;-67
2021/12/11 05:34:06;;;;;;;53.53;26.57;;;;;;;-145.18;100.00;47615.69;5048401;28;20045;-67
2021/12/11 05:36:35;;;;;;;47.13;25.60;;;;;;;-145.18;100.00;47580.53;5047855;28;20132;-67
2021/12/11 05:39:05;;;;;;;55.83;28.03;;;;;;;-145.18;100.00;47576.63;5048016;28;20440;-67
2021/12/11 05:41:31;;;;;;;56.47;28.17;;;;;;;-145.18;100.00;47613.75;5047956;28;20294;-67
2021/12/11 05:43:56;;;;;;;53.80;27.80;;;;;;;-145.18;100.00;47607.88;5050637;28;20277;-67
2021/12/11 05:46:22;;;;;;;47.47;26.77;;;;;;;-145.18;100.00;47592.25;5066471;28;20540;-68
2021/12/11 05:48:50;;;;;;;53.63;26.27;;;;;;;-145.18;100.00;47582.47;5066843;28;20117;-67
2021/12/11 05:51:21;;;;;;;52.70;27.30;;;;;;;-145.18;100.00;47603.97;5047754;28;20409;-67
2021/12/11 05:53:49;;;;;;;51.57;26.73;;;;;;;-145.18;100.00;47582.47;5049414;28;20277;-67
2021/12/11 05:56:15;;;;;;;53.23;28.27;;;;;;;-145.18;100.00;47592.25;5054430;28;20310;-67
2021/12/11 05:58:56;;;;;;;52.73;25.80;;;;;;;-145.18;100.00;47609.84;5053315;28;20285;-67
2021/12/11 06:01:50;;;;;;;48.20;25.83;;;;;;;-145.18;100.00;47584.44;5067236;28;20844;-69
2021/12/11 06:04:20;;;;;;;48.73;25.20;;;;;;;-145.18;100.00;47592.25;5049791;28;20281;-69
2021/12/11 06:06:47;;;;;;;48.77;25.70;;;;;;;-145.18;100.00;47605.94;5066956;28;20352;-69
2021/12/11 06:09:15;;;;;;;44.97;25.27;;;;;;;-145.18;100.00;47605.94;5049307;28;20316;-69
2021/12/11 06:11:44;;;;;;;47.97;23.43;;;;;;;-145.18;100.00;47588.34;5059482;28;20285;-69
2021/12/11 06:14:11;;;;;;;48.37;24.07;;;;;;;-145.18;100.00;47607.88;5066773;28;20364;-69
2021/12/11 06:16:36;;;;;;;48.40;24.63;;;;;;;-145.18;100.00;47580.53;5067041;28;20270;-69
2021/12/11 06:19:05;;;;;;;47.87;24.73;;;;;;;-145.18;100.00;47596.16;5067067;28;20277;-69
2021/12/11 06:21:33;;;;;;;47.63;24.10;;;;;;;-145.18;100.00;47596.16;5066619;28;20398;-69
2021/12/11 06:24:01;;;;;;;47.10;23.03;;;;;;;-145.18;100.00;47596.16;5064926;28;20324;-69
2021/12/11 06:26:26;;;;;;;43.27;21.73;;;;;;;-145.18;100.00;47596.16;5067025;28;20347;-70
2021/12/11 06:28:52;;;;;;;41.57;20.10;;;;;;;-145.18;100.00;47605.94;5067582;28;20742;-69
2021/12/11 06:31:19;;;;;;;39.13;19.67;;;;;;;-145.18;100.00;47594.19;5066541;28;20064;-69
2021/12/11 06:33:48;;;;;;;36.90;19.37;;;;;;;-145.18;100.00;47586.38;5066936;28;20032;-69
2021/12/11 06:36:15;;;;;;;44.10;18.57;;;;;;;-145.18;100.00;47586.38;5066495;28;20277;-69
2021/12/11 06:38:45;;;;;;;34.77;17.60;;;;;;;-145.18;100.00;47596.16;5066571;28;20373;-69
2021/12/11 06:41:12;;;;;;;34.97;17.40;;;;;;;-145.18;100.00;47605.94;5066035;28;20368;-69
2021/12/11 06:43:38;;;;;;;36.23;16.87;;;;;;;-145.18;100.00;47588.34;5045644;28;20643;-69
2021/12/11 06:46:05;;;;;;;33.47;16.87;;;;;;;-145.18;100.00;47594.19;5046615;28;20762;-69
2021/12/11 06:48:31;;;;;;;31.07;15.33;;;;;;;-145.18;100.00;47592.25;5066332;28;20284;-69
2021/12/11 06:50:58;;;;;;;32.93;14.43;;;;;;;-145.18;100.00;47611.78;5065775;28;20281;-69
2021/12/11 06:53:33;;;;;;;33.40;14.27;;;;;;;-145.18;100.00;47574.66;5065080;28;20478;-69
2021/12/11 06:55:59;;;;;;;31.85;13.20;;;;;;;-145.18;100.00;47570.75;5065519;28;20369;-69
2021/12/11 06:58:26;;;;;;;24.23;9.93;;;;;;;-145.18;100.00;47564.91;5066430;28;21519;-69
2021/12/11 07:00:53;;;;;;;24.20;10.03;;;;;;;-145.18;100.00;47574.66;5066425;28;20337;-69
2021/12/11 07:03:19;;;;;;;24.17;7.50;;;;;;;-145.18;100.00;47549.25;5066344;28;20709;-68
2021/12/11 07:05:45;;;;;;;20.50;6.13;;;;;;;-145.18;100.00;47561.00;5066336;28;20341;-69
2021/12/11 07:08:12;;;;;;;16.83;4.47;;;;;;;-145.18;100.00;47574.66;5066136;28;20436;-69
2021/12/11 07:10:39;;;;;;;14.27;4.33;;;;;;;-145.18;100.00;47562.94;5067007;28;20060;-69
2021/12/11 07:13:05;;;;;;;17.13;5.03;;;;;;;-145.18;100.00;47557.06;5066558;28;20257;-69
2021/12/11 07:15:31;;;;;;;18.07;3.20;;;;;;;-145.18;100.00;47559.03;5066386;28;20267;-69
2021/12/11 07:17:56;;;;;;;12.53;2.97;;;;;;;-145.18;100.00;47553.16;5065906;28;20493;-69
2021/12/11 07:20:22;;;;;;;13.73;2.60;;;;;;;-145.18;100.00;47547.31;5066293;28;20489;-69
2021/12/11 07:22:48;;;;;;;15.50;3.57;;;;;;;-145.18;100.00;47537.53;5065321;28;20040;-69
2021/12/11 07:25:18;;;;;;;11.47;2.77;;;;;;;-145.18;100.00;47555.13;5066363;28;20037;-69
2021/12/11 07:27:44;;;;;;;12.63;2.77;;;;;;;-145.18;100.00;47555.13;5065747;28;20040;-68
2021/12/11 07:30:10;;;;;;;10.87;1.70;;;;;;;-145.18;100.00;47559.03;5064850;28;20281;-69
2021/12/11 07:32:35;;;;;;;13.70;2.17;;;;;;;-145.18;100.00;47555.13;5059591;28;20063;-69
2021/12/11 07:35:01;;;;;;;7.77;1.10;;;;;;;-145.18;100.00;47572.72;5066191;28;20317;-69
2021/12/11 07:37:26;;;;;;;11.33;1.30;;;;;;;-145.18;100.00;47555.13;5064683;28;20105;-69
2021/12/11 07:39:52;;;;;;;9.97;1.50;;;;;;;-145.18;100.00;47561.00;5065500;28;20048;-70
2021/12/11 07:42:18;;;;;;;11.50;1.57;;;;;;;-145.18;100.00;47551.22;5062838;28;20041;-69
2021/12/11 07:44:43;;;;;;;11.87;1.53;;;;;;;-145.18;100.00;47555.13;5054603;28;20059;-69
2021/12/11 07:47:09;;;;;;;6.23;0.77;;;;;;;-145.18;100.00;47537.53;5066562;28;20040;-69
2021/12/11 07:49:35;;;;;;;7.70;1.17;;;;;;;-145.18;100.00;47547.31;5047732;28;20050;-69
2021/12/11 07:52:01;;;;;;;5.07;0.93;;;;;;;-145.18;100.00;47553.16;5054768;28;20045;-69
2021/12/11 07:54:26;;;;;;;7.97;1.00;;;;;;;-145.18;100.00;47553.16;5054895;28;20269;-67
2021/12/11 07:56:53;;;;;;;16.97;2.53;;;;;;;-145.18;100.00;47559.03;5066148;28;20041;-67
2021/12/11 07:59:19;;;;;;;7.63;1.57;;;;;;;-145.18;100.00;47541.44;5065810;28;20039;-67
2021/12/11 08:01:48;;;;;;;13.60;1.67;;;;;;;-145.18;100.00;47561.00;5063149;28;20301;-69
2021/12/11 08:04:14;;;;;;;6.93;1.57;;;;;;;-145.18;100.00;47545.34;5066049;28;20045;-68
2021/12/11 08:06:40;;;;;;;3.43;1.27;;;;;;;-145.18;100.00;47562.94;5065878;28;20285;-69
2021/12/11 08:09:09;;;;;;;8.57;1.77;;;;;;;-145.18;100.00;47566.84;5069053;28;20045;-69
2021/12/11 08:11:35;;;;;;;6.67;2.73;;;;;;;-145.18;100.00;47557.06;5067767;28;20335;-69
2021/12/11 08:14:01;;;;;;;4.80;2.30;;;;;;;-145.18;100.00;47568.81;5068979;28;20688;-69
2021/12/11 08:16:35;;;;;;;9.37;3.00;;;;;;;-145.18;100.00;47574.66;5069853;28;20090;-69
2021/12/11 08:19:04;;;;;;;15.97;3.60;;;;;;;-145.18;100.00;47541.44;5049372;28;20045;-69
2021/12/11 08:21:30;;;;;;;7.00;2.90;;;;;;;-145.18;100.00;47566.84;5048508;28;20282;-68
2021/12/11 08:23:59;;;;;;;10.50;3.73;;;;;;;-145.18;100.00;47531.69;5049083;28;20286;-69
2021/12/11 08:26:25;;;;;;;12.00;3.70;;;;;;;-145.18;100.00;47547.31;5048884;28;20305;-69
2021/12/11 08:28:51;;;;;;;10.83;3.47;;;;;;;-145.18;100.00;47551.22;5048941;28;20310;-69
2021/12/11 08:31:20;;;;;;;14.53;3.80;;;;;;;-145.18;100.00;47574.66;5048354;28;20823;-69
2021/12/11 08:33:46;;;;;;;16.87;5.70;;;;;;;-145.18;100.00;47543.41;5048808;28;20262;-69
2021/12/11 08:36:12;;;;;;;9.17;4.73;;;;;;;-145.18;100.00;47566.84;5048166;28;20698;-69
2021/12/11 08:38:38;;;;;;;13.23;4.03;;;;;;;-145.18;100.00;47547.31;5048537;28;20278;-69
2021/12/11 08:41:07;;;;;;;12.10;4.70;;;;;;;-145.18;100.00;47566.84;5049231;28;20044;-69
2021/12/11 08:43:33;;;;;;;13.90;5.30;;;;;;;-145.18;100.00;47551.22;5048352;28;20285;-69
2021/12/11 08:46:15;;;;;;;14.67;6.13;;;;;;;-145.18;100.00;47541.44;5048091;28;20704;-69
2021/12/11 08:48:45;;;;;;;21.90;6.03;;;;;;;-145.18;100.00;47568.81;5047909;28;20404;-68
2021/12/11 08:51:16;;;;;;;16.03;6.20;;;;;;;-145.18;100.00;47533.63;5048623;28;20277;-68
2021/12/11 08:53:42;;;;;;;18.23;6.73;;;;;;;-145.18;100.00;47543.41;5048545;28;20262;-68
2021/12/11 08:56:10;;;;;;;10.70;5.93;;;;;;;-145.18;100.00;47559.03;5048960;28;20332;-68
2021/12/11 08:58:36;;;;;;;19.87;7.87;;;;;;;-145.18;100.00;47545.34;5048351;28;20041;-68
2021/12/11 09:01:24;;;;;;;17.20;5.97;;;;;;;-145.18;100.00;47549.25;5048949;28;20266;-68
2021/12/11 09:04:04;;;;;;;15.83;5.97;;;;;;;-145.18;100.00;47551.22;5048773;28;20281;-68
2021/12/11 09:06:50;;;;;;;14.67;6.80;;;;;;;-145.18;100.00;47519.97;5048339;28;20258;-68
2021/12/11 09:09:45;;;;;;;18.15;6.72;;;;;;;-145.18;100.00;47535.59;5048873;28;20263;-68
2021/12/11 09:12:31;;;;;;;19.00;7.23;;;;;;;-145.18;100.00;47523.88;5048826;28;20083;-68
2021/12/11 09:15:15;;;;;;;16.85;8.57;;;;;;;-145.18;100.00;47553.16;5048251;28;20361;-68
2021/12/11 09:17:50;;;;;;;21.33;10.27;;;;;;;-145.18;100.00;47555.13;5048421;28;20098;-69
2021/12/11 09:20:48;;;;;;;20.63;8.03;;;;;;;-145.18;100.00;47547.31;5047594;28;20348;-68
2021/12/11 09:23:28;;;;;;;31.70;11.23;;;;;;;-145.18;100.00;47547.31;5047861;28;20266;-68
2021/12/11 09:26:02;;;;;;;19.43;10.17;;;;;;;-145.18;100.00;47535.59;5048114;28;20343;-68
2021/12/11 09:28:55;;;;;;;23.33;10.67;;;;;;;-145.18;100.00;47537.53;5048495;28;20265;-68
2021/12/11 09:31:53;;;;;;;27.97;8.93;;;;;;;-145.18;100.00;47537.53;5048654;28;20335;-68
2021/12/11 09:34:24;;;;;;;24.30;11.63;;;;;;;-145.18;100.00;47547.31;5046992;28;20289;-68
2021/12/11 09:36:54;;;;;;;26.57;10.17;;;;;;;-145.18;100.00;47535.59;5047528;28;20278;-68
2021/12/11 09:39:34;;;;;;;21.33;8.70;;;;;;;-145.18;100.00;47533.63;5047448;28;20313;-68
2021/12/11 09:42:00;;;;;;;29.23;11.43;;;;;;;-145.18;100.00;47547.31;5047404;28;20278;-68
2021/12/11 09:44:31;;;;;;;24.13;11.37;;;;;;;-145.18;100.00;47541.44;5047280;28;20274;-69
2021/12/11 09:47:03;;;;;;;29.83;11.17;;;;;;;-145.18;100.00;47523.88;5045300;28;20041;-69
2021/12/11 09:49:34;;;;;;;27.97;11.33;;;;;;;-145.18;100.00;47531.69;5048164;28;20281;-68
2021/12/11 09:52:14;;;;;;;25.40;8.70;;;;;;;-145.18;100.00;47518.00;5047953;28;20296;-69
2021/12/11 09:54:42;;;;;;;24.37;11.10;;;;;;;-145.18;100.00;47523.88;5047856;28;20306;-69
2021/12/11 09:57:11;;;;;;;25.97;10.37;;;;;;;-145.18;100.00;47523.88;5047221;28;20270;-69
2021/12/11 09:59:38;;;;;;;30.33;13.03;;;;;;;-145.18;100.00;47527.78;5046356;28;20274;-69
2021/12/11 10:02:08;;;;;;;25.00;11.93;;;;;;;-145.18;100.00;47529.72;5047721;28;20286;-69
2021/12/11 10:04:45;;;;;;;29.20;13.13;;;;;;;-145.18;100.00;47527.78;5047445;28;20274;-69
2021/12/11 10:07:28;;;;;;;24.70;12.50;;;;;;;-145.18;100.00;47514.09;5047653;28;20282;-69
2021/12/11 10:10:04;;;;;;;27.97;11.90;;;;;;;-145.18;100.00;47504.31;5046847;28;20670;-69
2021/12/11 10:12:37;;;;;;;28.13;12.90;;;;;;;-145.18;100.00;47496.50;5047701;28;20293;-69
2021/12/11 10:15:11;;;;;;;26.70;11.50;;;;;;;-145.18;100.00;47488.69;5047798;28;20306;-69
2021/12/11 10:17:42;;;;;;;24.50;11.17;;;;;;;-145.18;100.00;47500.41;5047204;28;20266;-69
2021/12/11 10:20:26;;;;;;;24.77;10.50;;;;;;;-145.18;100.00;47508.22;5047248;28;20258;-69
2021/12/11 10:22:56;;;;;;;28.00;11.13;;;;;;;-145.18;100.00;47508.22;5046896;28;20285;-69
2021/12/11 10:25:30;;;;;;;19.87;10.17;;;;;;;-145.18;100.00;47498.47;5047396;28;20274;-69
2021/12/11 10:27:58;;;;;;;28.73;11.17;;;;;;;-145.18;100.00;47506.28;5047193;28;20269;-69
2021/12/11 10:30:24;;;;;;;23.30;11.20;;;;;;;-145.18;100.00;47525.81;5047063;28;20280;-69
2021/12/11 10:32:51;;;;;;;24.43;10.03;;;;;;;-145.18;100.00;47521.91;5046842;28;20740;-69
2021/12/11 10:35:22;;;;;;;25.73;10.90;;;;;;;-145.18;100.00;47527.78;5046999;28;20620;-69
2021/12/11 10:37:48;;;;;;;20.17;10.00;;;;;;;-145.18;100.00;47518.00;5046911;28;20294;-69
2021/12/11 10:40:28;;;;;;;23.03;10.63;;;;;;;-145.18;100.00;47502.38;5047042;28;21086;-69
2021/12/11 10:43:00;;;;;;;23.30;10.40;;;;;;;-145.18;100.00;47504.31;5046543;28;20048;-69
2021/12/11 10:45:28;;;;;;;21.07;10.67;;;;;;;-145.18;100.00;47521.91;5045892;28;20290;-69
2021/12/11 10:47:59;;;;;;;19.20;10.57;;;;;;;-145.18;100.00;47523.88;5046195;28;20290;-69
2021/12/11 10:50:38;;;;;;;15.57;9.17;;;;;;;-145.18;100.00;47504.31;5046060;28;20682;-69
2021/12/11 10:53:07;;;;;;;24.10;10.33;;;;;;;-145.18;100.00;47504.31;5046829;28;20826;-69
2021/12/11 10:55:33;;;;;;;21.57;9.57;;;;;;;-145.18;100.00;47512.16;5046399;28;20273;-69
2021/12/11 10:58:03;;;;;;;25.87;11.07;;;;;;;-145.18;100.00;47486.75;5046491;28;20297;-69
2021/12/11 11:00:35;;;;;;;17.07;10.33;;;;;;;-145.18;100.00;47476.97;5046481;28;20270;-69
2021/12/11 11:03:02;;;;;;;22.73;10.17;;;;;;;-145.18;100.00;47476.97;5045169;28;20289;-69
2021/12/11 11:05:29;;;;;;;18.33;8.40;;;;;;;-145.18;100.00;47476.97;5046796;28;20282;-69
2021/12/11 11:07:55;;;;;;;17.63;8.40;;;;;;;-145.18;100.00;47469.16;5046386;28;20317;-69
2021/12/11 11:10:26;;;;;;;12.23;6.47;;;;;;;-145.18;100.00;47428.13;5046857;28;20285;-69
2021/12/11 11:12:55;;;;;;;13.07;5.47;;;;;;;-145.18;100.00;47445.72;5046751;28;20509;-69
2021/12/11 11:15:23;;;;;;;15.73;6.30;;;;;;;-145.18;100.00;47430.09;5046731;28;20626;-69
2021/12/11 11:17:50;;;;;;;13.63;4.30;;;;;;;-145.18;100.00;47447.66;5045761;28;20365;-69
2021/12/11 11:20:21;;;;;;;13.63;4.53;;;;;;;-145.18;100.00;47437.91;5047072;28;20266;-70